Time;durP1;ratioP1;P1;durP2;ratioP2;P2;SDS_P1;SDS_P2;PMS_P1;PMS_P2;Temp;Humidity;BMP_temperature;BMP_pressure;BME280_temperature;BME280_humidity;BME280_pressure;Samples;Min_cycle;Max_cycle;Signal;HPM_P1;HPM_P2
2022/08/18 00:01:43;;;;;;;1.10;1.10;;;;;;;;;;5046352;28;20127;-48
2022/08/18 00:04:10;;;;;;;1.17;1.10;;;;;;;;;;5045951;28;20047;-47
2022/08/18 00:06:36;;;;;;;1.20;1.10;;;;;;;;;;5047219;28;20033;-51
2022/08/18 00:09:05;;;;;;;3.72;1.17;;;;;;;;;;5045417;28;20029;-49
2022/08/18 00:11:34;;;;;;;1.35;1.20;;;;;;;;;;5044943;28;20040;-48
2022/08/18 00:14:00;;;;;;;1.40;1.30;;;;;;;;;;5044976;28;20441;-48
2022/08/18 00:16:25;;;;;;;2.80;1.10;;;;;;;;;;5044037;28;20025;-53
2022/08/18 00:18:51;;;;;;;7.18;1.40;;;;;;;;;;5047873;28;20128;-47
2022/08/18 00:21:17;;;;;;;1.83;1.40;;;;;;;;;;5044331;28;20029;-49
2022/08/18 00:23:43;;;;;;;1.25;1.00;;;;;;;;;;5043608;28;20022;-47
2022/08/18 00:26:09;;;;;;;1.70;1.30;;;;;;;;;;5046335;28;20094;-49
2022/08/18 00:28:35;;;;;;;2.47;1.10;;;;;;;;;;5047237;28;20048;-50
2022/08/18 00:31:01;;;;;;;1.50;1.35;;;;;;;;;;5047447;28;22683;-48
2022/08/18 00:33:27;;;;;;;3.53;1.33;;;;;;;;;;5045727;28;20041;-47
2022/08/18 00:35:52;;;;;;;1.63;1.15;;;;;;;;;;5043506;28;20030;-49
2022/08/18 00:38:18;;;;;;;3.45;1.40;;;;;;;;;;5044422;28;20048;-50
2022/08/18 00:40:47;;;;;;;4.57;1.23;;;;;;;;;;5044018;28;20029;-48
2022/08/18 00:43:19;;;;;;;1.63;1.10;;;;;;;;;;5046495;28;20022;-50
2022/08/18 00:45:45;;;;;;;1.17;1.17;;;;;;;;;;5042617;28;20060;-49
2022/08/18 00:48:12;;;;;;;1.98;1.13;;;;;;;;;;5042972;28;20171;-48
2022/08/18 00:51:01;;;;;;;1.80;1.50;;;;;;;;;;5043844;28;20057;-47
2022/08/18 00:53:40;;;;;;;3.65;1.30;;;;;;;;;;5044283;28;20090;-50
2022/08/18 00:56:12;;;;;;;2.55;1.25;;;;;;;;;;5045821;28;20494;-48
2022/08/18 00:58:44;;;;;;;2.80;1.30;;;;;;;;;;5045500;28;20473;-48
2022/08/18 01:01:11;;;;;;;2.08;1.25;;;;;;;;;;5044358;28;20045;-47
2022/08/18 01:03:38;;;;;;;2.25;1.30;;;;;;;;;;5043754;28;20080;-50
2022/08/18 01:06:27;;;;;;;1.35;1.20;;;;;;;;;;5042882;28;20536;-48
2022/08/18 01:08:54;;;;;;;6.80;1.35;;;;;;;;;;5041952;28;20401;-47
2022/08/18 01:11:20;;;;;;;2.17;1.23;;;;;;;;;;5043923;28;20453;-49
2022/08/18 01:13:46;;;;;;;2.58;1.50;;;;;;;;;;5041587;28;20056;-48
2022/08/18 01:21:50;;;;;;;4.30;1.60;;;;;;;;;;5044468;28;20032;-48
2022/08/18 01:27:17;;;;;;;3.42;1.17;;;;;;;;;;5040080;28;20064;-47
2022/08/18 01:29:48;;;;;;;1.67;1.10;;;;;;;;;;5043403;28;20028;-47
2022/08/18 01:32:21;;;;;;;1.77;1.20;;;;;;;;;;5024755;28;20108;-48
2022/08/18 01:34:49;;;;;;;9.38;1.30;;;;;;;;;;5042856;28;20497;-48
2022/08/18 01:37:16;;;;;;;3.10;1.38;;;;;;;;;;5041884;28;20480;-49
2022/08/18 01:39:44;;;;;;;1.33;1.23;;;;;;;;;;5043391;28;20044;-48
2022/08/18 01:42:12;;;;;;;1.60;1.17;;;;;;;;;;5044091;28;20855;-52
2022/08/18 01:44:40;;;;;;;1.27;1.17;;;;;;;;;;5043461;28;20118;-47
2022/08/18 01:47:07;;;;;;;3.13;1.38;;;;;;;;;;5041966;28;20025;-49
2022/08/18 01:49:33;;;;;;;2.88;1.30;;;;;;;;;;5041623;28;20025;-48
2022/08/18 01:51:59;;;;;;;1.40;1.15;;;;;;;;;;5041442;28;20025;-53
2022/08/18 01:54:28;;;;;;;8.85;1.30;;;;;;;;;;5044411;28;20370;-48
2022/08/18 01:56:54;;;;;;;4.22;1.40;;;;;;;;;;5041404;28;20068;-51
2022/08/18 01:59:20;;;;;;;5.90;1.40;;;;;;;;;;5045134;28;20127;-48
2022/08/18 02:01:46;;;;;;;5.80;1.50;;;;;;;;;;5042954;28;20033;-47
2022/08/18 02:04:14;;;;;;;1.73;1.35;;;;;;;;;;5048389;28;20469;-50
2022/08/18 02:06:40;;;;;;;3.45;1.50;;;;;;;;;;5040499;28;20048;-52
2022/08/18 02:09:06;;;;;;;7.68;1.40;;;;;;;;;;5044868;28;20040;-49
2022/08/18 02:11:32;;;;;;;1.35;1.25;;;;;;;;;;5048507;28;20029;-49
2022/08/18 02:13:57;;;;;;;6.75;1.45;;;;;;;;;;5049321;28;20032;-49
2022/08/18 02:16:23;;;;;;;4.03;1.40;;;;;;;;;;5047848;28;20037;-53
2022/08/18 02:18:49;;;;;;;8.90;1.77;;;;;;;;;;5045745;28;20032;-49
2022/08/18 02:21:17;;;;;;;3.97;1.50;;;;;;;;;;5043979;28;22388;-51
2022/08/18 02:23:44;;;;;;;4.78;1.48;;;;;;;;;;5047931;28;20028;-48
2022/08/18 02:26:13;;;;;;;3.42;1.60;;;;;;;;;;5049867;28;20029;-47
2022/08/18 02:28:39;;;;;;;3.65;1.27;;;;;;;;;;5045907;28;20482;-50
2022/08/18 02:31:08;;;;;;;5.07;2.45;;;;;;;;;;5046171;28;20025;-48
2022/08/18 02:33:33;;;;;;;4.15;1.67;;;;;;;;;;5044865;28;20111;-49
2022/08/18 02:36:00;;;;;;;8.82;1.80;;;;;;;;;;5045051;28;20120;-49
2022/08/18 02:38:26;;;;;;;8.07;1.92;;;;;;;;;;5046410;28;20029;-49
2022/08/18 02:41:00;;;;;;;3.70;1.63;;;;;;;;;;5045088;28;20470;-47
2022/08/18 02:43:27;;;;;;;3.17;1.75;;;;;;;;;;5043871;28;20478;-49
2022/08/18 02:45:52;;;;;;;5.03;1.73;;;;;;;;;;5046614;28;20052;-47
2022/08/18 02:48:32;;;;;;;5.38;1.58;;;;;;;;;;5043067;28;20028;-49
2022/08/18 02:51:04;;;;;;;7.30;1.60;;;;;;;;;;5044232;28;20039;-51
2022/08/18 02:53:31;;;;;;;3.25;1.50;;;;;;;;;;5047693;28;20044;-49
2022/08/18 02:56:24;;;;;;;5.00;1.70;;;;;;;;;;5045706;28;20029;-53
2022/08/18 02:58:54;;;;;;;4.18;1.90;;;;;;;;;;5046232;28;20037;-49
2022/08/18 03:01:21;;;;;;;12.93;2.55;;;;;;;;;;5045946;28;20056;-48
2022/08/18 03:03:47;;;;;;;2.65;1.85;;;;;;;;;;5045796;28;20025;-47
2022/08/18 03:06:13;;;;;;;1.88;1.55;;;;;;;;;;5043987;28;20031;-48
2022/08/18 03:08:39;;;;;;;2.45;1.70;;;;;;;;;;5046403;28;20033;-50
2022/08/18 03:11:04;;;;;;;4.00;1.75;;;;;;;;;;5047077;28;20075;-47
2022/08/18 03:13:30;;;;;;;3.05;1.60;;;;;;;;;;5044581;28;20033;-49
2022/08/18 03:15:56;;;;;;;1.85;1.67;;;;;;;;;;5046585;28;20032;-52
2022/08/18 03:18:22;;;;;;;3.42;1.70;;;;;;;;;;5050031;28;20037;-48
2022/08/18 03:20:49;;;;;;;3.50;1.50;;;;;;;;;;5047757;28;20136;-50
2022/08/18 03:23:15;;;;;;;2.53;2.00;;;;;;;;;;5043314;28;20048;-48
2022/08/18 03:25:47;;;;;;;4.95;1.50;;;;;;;;;;5046585;28;20036;-48
2022/08/18 03:28:13;;;;;;;1.98;1.80;;;;;;;;;;5044315;28;20038;-48
2022/08/18 03:30:39;;;;;;;5.20;2.10;;;;;;;;;;5045218;28;20516;-51
2022/08/18 03:33:05;;;;;;;4.05;2.30;;;;;;;;;;5046667;28;20041;-46
2022/08/18 03:35:34;;;;;;;3.03;1.80;;;;;;;;;;5046013;28;20024;-49
2022/08/18 03:37:59;;;;;;;2.15;1.95;;;;;;;;;;5044617;28;20073;-50
2022/08/18 03:40:25;;;;;;;2.97;2.22;;;;;;;;;;5046152;28;20052;-47
2022/08/18 03:42:51;;;;;;;7.90;1.83;;;;;;;;;;5043375;28;20021;-47
2022/08/18 03:45:17;;;;;;;5.10;2.15;;;;;;;;;;5043164;28;20020;-48
2022/08/18 03:47:44;;;;;;;3.08;1.83;;;;;;;;;;5043228;28;20919;-47
2022/08/18 03:50:11;;;;;;;4.13;1.80;;;;;;;;;;5042125;28;20389;-50
2022/08/18 03:52:37;;;;;;;2.45;2.22;;;;;;;;;;5043110;28;20017;-49
2022/08/18 03:55:04;;;;;;;7.90;2.30;;;;;;;;;;5046163;28;20095;-49
2022/08/18 03:57:31;;;;;;;3.15;1.85;;;;;;;;;;5043037;28;20110;-48
2022/08/18 03:59:57;;;;;;;6.05;2.10;;;;;;;;;;5044074;28;20393;-50
2022/08/18 04:02:23;;;;;;;2.28;2.10;;;;;;;;;;5044909;28;20025;-47
2022/08/18 04:04:48;;;;;;;3.17;2.10;;;;;;;;;;5044815;28;20358;-46
2022/08/18 04:07:16;;;;;;;10.10;2.20;;;;;;;;;;5047562;28;20040;-48
2022/08/18 04:09:42;;;;;;;2.42;2.22;;;;;;;;;;5045126;28;20764;-45
2022/08/18 04:12:14;;;;;;;3.60;2.20;;;;;;;;;;5044432;28;20488;-48
2022/08/18 04:14:59;;;;;;;11.52;2.25;;;;;;;;;;5043524;28;20120;-53
2022/08/18 04:17:45;;;;;;;6.95;2.10;;;;;;;;;;5040714;28;20045;-46
2022/08/18 04:20:33;;;;;;;5.38;2.15;;;;;;;;;;5044961;28;20473;-47
2022/08/18 04:23:20;;;;;;;2.67;2.00;;;;;;;;;;5044912;28;20539;-47
2022/08/18 04:26:07;;;;;;;6.45;2.65;;;;;;;;;;5044660;28;20047;-46
2022/08/18 04:28:52;;;;;;;2.60;2.13;;;;;;;;;;5042971;28;20123;-52
2022/08/18 04:31:37;;;;;;;5.18;2.47;;;;;;;;;;5044213;28;20071;-50
2022/08/18 04:34:23;;;;;;;8.18;3.38;;;;;;;;;;5042829;28;20118;-47
2022/08/18 04:36:53;;;;;;;19.48;3.08;;;;;;;;;;5045096;28;20052;-47
2022/08/18 04:39:20;;;;;;;4.72;2.00;;;;;;;;;;5044556;28;20107;-48
2022/08/18 04:41:47;;;;;;;3.08;2.35;;;;;;;;;;5024291;28;20025;-50
2022/08/18 04:44:13;;;;;;;4.18;2.40;;;;;;;;;;5056933;28;20059;-47
2022/08/18 04:46:42;;;;;;;5.80;2.75;;;;;;;;;;5043739;28;20127;-47
2022/08/18 04:49:10;;;;;;;5.00;2.60;;;;;;;;;;5041112;28;20033;-47
2022/08/18 04:51:41;;;;;;;3.50;2.60;;;;;;;;;;5043125;28;20060;-48
2022/08/18 04:54:07;;;;;;;4.03;2.38;;;;;;;;;;5044894;28;20087;-47
2022/08/18 04:56:36;;;;;;;2.58;2.38;;;;;;;;;;5044882;28;20053;-48
2022/08/18 04:59:09;;;;;;;4.55;2.47;;;;;;;;;;5042832;28;20505;-48
2022/08/18 05:01:41;;;;;;;4.18;2.67;;;;;;;;;;5044316;28;20052;-47
2022/08/18 05:04:08;;;;;;;2.70;2.50;;;;;;;;;;5040385;28;20021;-47
2022/08/18 05:06:35;;;;;;;3.25;3.00;;;;;;;;;;5044421;28;20485;-47
2022/08/18 05:09:04;;;;;;;8.45;2.67;;;;;;;;;;5045934;28;20451;-44
2022/08/18 05:11:34;;;;;;;3.92;2.72;;;;;;;;;;5041480;28;20036;-48
2022/08/18 05:14:02;;;;;;;3.65;2.55;;;;;;;;;;5043154;28;20120;-48
2022/08/18 05:16:30;;;;;;;7.15;2.83;;;;;;;;;;5043269;28;20025;-46
2022/08/18 05:18:56;;;;;;;3.60;2.58;;;;;;;;;;5046915;28;20029;-51
2022/08/18 05:21:23;;;;;;;8.07;3.05;;;;;;;;;;5045090;28;20032;-46
2022/08/18 05:23:50;;;;;;;8.93;2.88;;;;;;;;;;5040929;28;20028;-53
2022/08/18 05:26:18;;;;;;;3.50;2.80;;;;;;;;;;5046036;28;20541;-46
2022/08/18 05:28:45;;;;;;;5.90;2.72;;;;;;;;;;5041354;28;20067;-46
2022/08/18 05:31:16;;;;;;;8.10;2.88;;;;;;;;;;5040745;28;20029;-46
2022/08/18 05:33:42;;;;;;;5.88;3.20;;;;;;;;;;5042246;28;20076;-49
2022/08/18 05:36:36;;;;;;;3.65;2.90;;;;;;;;;;5039368;28;20035;-47
2022/08/18 05:39:19;;;;;;;6.15;2.78;;;;;;;;;;5042157;28;20380;-51
2022/08/18 05:42:02;;;;;;;4.90;2.80;;;;;;;;;;5043517;28;20398;-47
2022/08/18 05:44:41;;;;;;;3.55;3.25;;;;;;;;;;5044988;28;20029;-48
2022/08/18 05:47:18;;;;;;;3.83;3.00;;;;;;;;;;5049288;28;20031;-48
2022/08/18 05:49:47;;;;;;;3.17;2.90;;;;;;;;;;5046127;28;20021;-46
2022/08/18 05:52:22;;;;;;;6.75;3.20;;;;;;;;;;5047676;28;20032;-48
2022/08/18 05:57:45;;;;;;;4.50;3.00;;;;;;;;;;5048538;28;20041;-51
2022/08/18 06:00:12;;;;;;;5.07;2.92;;;;;;;;;;5045179;28;20667;-47
2022/08/18 06:02:46;;;;;;;3.97;2.50;;;;;;;;;;5049224;28;20095;-47
2022/08/18 06:05:24;;;;;;;3.00;2.70;;;;;;;;;;5049556;28;20358;-46
2022/08/18 06:07:57;;;;;;;3.75;3.42;;;;;;;;;;5046238;28;20025;-48
2022/08/18 06:10:24;;;;;;;4.68;2.80;;;;;;;;;;5043223;28;20578;-51
2022/08/18 06:12:53;;;;;;;6.63;2.80;;;;;;;;;;5048532;28;20112;-48
2022/08/18 06:15:44;;;;;;;2.80;2.53;;;;;;;;;;5043928;28;20025;-47
2022/08/18 06:18:26;;;;;;;5.70;3.10;;;;;;;;;;5043787;28;20033;-50
2022/08/18 06:21:16;;;;;;;3.65;2.70;;;;;;;;;;5047287;28;20041;-46
2022/08/18 06:23:56;;;;;;;3.25;2.85;;;;;;;;;;5043301;28;20075;-49
2022/08/18 06:26:47;;;;;;;3.00;2.80;;;;;;;;;;5043643;28;20030;-51
2022/08/18 06:29:25;;;;;;;5.65;2.83;;;;;;;;;;5040688;28;20037;-47
2022/08/18 06:32:14;;;;;;;2.80;2.60;;;;;;;;;;5042424;28;20509;-46
2022/08/18 06:34:55;;;;;;;6.13;3.05;;;;;;;;;;5043886;28;20064;-50
2022/08/18 06:38:37;;;;;;;5.18;2.78;;;;;;;;;;5038612;28;20037;-46
2022/08/18 06:40:25;;;;;;;2.97;2.60;;;;;;;;;;5045381;28;20037;-49
2022/08/18 06:42:50;;;;;;;7.53;3.63;;;;;;;;;;5046028;28;20035;-47
2022/08/18 06:45:18;;;;;;;5.95;2.80;;;;;;;;;;5047705;28;20721;-47
2022/08/18 06:48:16;;;;;;;2.47;2.28;;;;;;;;;;5039803;28;20021;-49
2022/08/18 06:50:51;;;;;;;6.68;2.50;;;;;;;;;;5024373;28;20033;-47
2022/08/18 06:53:18;;;;;;;2.20;2.00;;;;;;;;;;5044043;28;20040;-49
2022/08/18 06:55:47;;;;;;;3.08;2.10;;;;;;;;;;5036037;28;20079;-48
2022/08/18 06:58:16;;;;;;;5.25;2.30;;;;;;;;;;5035942;28;20553;-47
2022/08/18 07:01:06;;;;;;;2.03;1.92;;;;;;;;;;5040585;28;20033;-47
2022/08/18 07:03:38;;;;;;;6.10;1.85;;;;;;;;;;5036924;28;20732;-50
2022/08/18 07:06:29;;;;;;;1.90;1.77;;;;;;;;;;5041554;28;20029;-46
2022/08/18 07:09:15;;;;;;;3.63;1.80;;;;;;;;;;5036225;28;20037;-48
2022/08/18 07:11:58;;;;;;;2.72;1.90;;;;;;;;;;5039788;28;20115;-44
2022/08/18 07:14:24;;;;;;;5.03;2.25;;;;;;;;;;5047357;28;20083;-53
2022/08/18 07:17:05;;;;;;;4.28;2.42;;;;;;;;;;5045054;28;20352;-47
2022/08/18 07:19:32;;;;;;;4.53;2.63;;;;;;;;;;5044516;28;20477;-50
2022/08/18 07:22:13;;;;;;;6.82;2.08;;;;;;;;;;5038261;28;20063;-51
2022/08/18 07:24:53;;;;;;;6.80;2.53;;;;;;;;;;5042801;28;20040;-49
2022/08/18 07:27:40;;;;;;;6.55;2.60;;;;;;;;;;5039913;28;20033;-48
2022/08/18 07:30:12;;;;;;;7.30;2.80;;;;;;;;;;5043008;28;20033;-48
2022/08/18 07:32:48;;;;;;;3.25;2.83;;;;;;;;;;5043866;28;20021;-48
2022/08/18 07:35:18;;;;;;;2.72;2.40;;;;;;;;;;5044647;28;20024;-51
2022/08/18 07:38:01;;;;;;;3.28;2.60;;;;;;;;;;5041416;28;20064;-49
2022/08/18 07:41:19;;;;;;;5.13;2.88;;;;;;;;;;5042079;28;20021;-52
2022/08/18 07:43:58;;;;;;;3.90;3.50;;;;;;;;;;5024321;28;20037;-47
2022/08/18 07:46:30;;;;;;;4.18;3.60;;;;;;;;;;5023931;28;20045;-47
2022/08/18 07:48:58;;;;;;;4.32;3.92;;;;;;;;;;5024322;28;20065;-50
2022/08/18 07:51:44;;;;;;;4.45;4.05;;;;;;;;;;5021331;28;20049;-50
2022/08/18 07:54:25;;;;;;;4.82;3.88;;;;;;;;;;5025433;28;20560;-48
2022/08/18 07:57:14;;;;;;;4.60;3.50;;;;;;;;;;5022500;28;20203;-52
2022/08/18 08:00:03;;;;;;;4.50;3.58;;;;;;;;;;5021695;28;20696;-49
2022/08/18 08:02:48;;;;;;;3.63;3.35;;;;;;;;;;5022498;28;20042;-53
2022/08/18 08:05:34;;;;;;;4.95;3.30;;;;;;;;;;5022863;28;20112;-48
2022/08/18 08:08:20;;;;;;;4.40;3.47;;;;;;;;;;5024052;28;20052;-49
2022/08/18 08:11:03;;;;;;;3.90;3.60;;;;;;;;;;5021499;28;20090;-52
2022/08/18 08:13:52;;;;;;;10.88;3.63;;;;;;;;;;5023214;28;20037;-54
2022/08/18 08:16:43;;;;;;;3.83;3.50;;;;;;;;;;5022203;28;20047;-50
2022/08/18 08:19:32;;;;;;;5.90;3.50;;;;;;;;;;5032695;28;20131;-47
2022/08/18 08:22:18;;;;;;;3.75;3.10;;;;;;;;;;5043184;28;20036;-47
2022/08/18 08:25:04;;;;;;;3.50;3.25;;;;;;;;;;5043320;28;20036;-51
2022/08/18 08:27:41;;;;;;;4.55;3.17;;;;;;;;;;5023737;28;20033;-52
2022/08/18 08:30:12;;;;;;;5.57;3.42;;;;;;;;;;5039369;28;20036;-52
2022/08/18 08:33:21;;;;;;;7.30;3.30;;;;;;;;;;5041222;28;20938;-48
2022/08/18 08:35:53;;;;;;;3.65;3.15;;;;;;;;;;5038280;28;20286;-54
2022/08/18 08:38:45;;;;;;;7.57;3.15;;;;;;;;;;5039194;28;20116;-52
2022/08/18 08:41:31;;;;;;;3.30;3.10;;;;;;;;;;5039258;28;20033;-47
2022/08/18 08:44:39;;;;;;;3.53;3.13;;;;;;;;;;5041727;28;20078;-48
2022/08/18 08:47:25;;;;;;;3.38;3.05;;;;;;;;;;5040894;28;20448;-50
2022/08/18 08:49:57;;;;;;;4.90;3.00;;;;;;;;;;5042068;28;20681;-50
2022/08/18 08:52:33;;;;;;;9.50;2.97;;;;;;;;;;5043133;28;20025;-51
2022/08/18 08:55:05;;;;;;;3.47;3.17;;;;;;;;;;5041486;28;20477;-49
2022/08/18 08:57:38;;;;;;;5.78;2.88;;;;;;;;;;5041253;28;20040;-47
2022/08/18 09:00:07;;;;;;;7.93;2.83;;;;;;;;;;5035936;28;21019;-49
2022/08/18 09:03:01;;;;;;;6.38;3.03;;;;;;;;;;5037259;28;20028;-47
2022/08/18 09:05:33;;;;;;;4.80;2.78;;;;;;;;;;5043151;28;20049;-52
2022/08/18 09:08:07;;;;;;;;;;;;;;;;;;5041435;28;20021;-51
2022/08/18 09:10:48;;;;;;;2.83;2.60;;;;;;;;;;5043025;28;20359;-49
2022/08/18 09:13:27;;;;;;;11.00;3.13;;;;;;;;;;5042774;28;20025;-51
2022/08/18 09:16:03;;;;;;;3.55;2.47;;;;;;;;;;5041089;28;20057;-49
2022/08/18 09:18:50;;;;;;;3.38;2.92;;;;;;;;;;5043304;28;20373;-47
2022/08/18 09:21:45;;;;;;;4.93;2.70;;;;;;;;;;5042736;28;20477;-51
2022/08/18 09:24:27;;;;;;;4.28;2.83;;;;;;;;;;5042493;28;20044;-48
2022/08/18 09:27:14;;;;;;;4.68;2.83;;;;;;;;;;5039836;28;20029;-49
2022/08/18 09:29:56;;;;;;;3.72;3.08;;;;;;;;;;5040769;28;20029;-49
2022/08/18 09:32:21;;;;;;;4.75;2.85;;;;;;;;;;5042672;28;20381;-44
2022/08/18 09:35:05;;;;;;;3.30;3.00;;;;;;;;;;5044801;28;20043;-49
2022/08/18 09:41:30;;;;;;;14.57;3.28;;;;;;;;;;5042489;28;20060;-49
2022/08/18 09:41:44;;;;;;;4.25;2.53;;;;;;;;;;5043012;28;20045;-46
2022/08/18 09:44:08;;;;;;;6.82;2.55;;;;;;;;;;5034847;28;20030;-49
2022/08/18 09:46:40;;;;;;;2.97;2.50;;;;;;;;;;5044697;28;20041;-48
2022/08/18 09:49:24;;;;;;;3.47;2.67;;;;;;;;;;5043209;28;20033;-50
2022/08/18 09:51:55;;;;;;;3.00;2.60;;;;;;;;;;5043275;28;20040;-47
2022/08/18 09:54:29;;;;;;;6.53;2.50;;;;;;;;;;5036540;28;20056;-47
2022/08/18 09:57:06;;;;;;;2.70;2.50;;;;;;;;;;5042543;28;20033;-47
2022/08/18 09:59:31;;;;;;;2.60;2.40;;;;;;;;;;5044363;28;20102;-50
2022/08/18 10:02:05;;;;;;;2.30;2.20;;;;;;;;;;5043951;28;20500;-47
2022/08/18 10:04:50;;;;;;;3.75;2.30;;;;;;;;;;5041692;28;20551;-47
2022/08/18 10:07:36;;;;;;;3.50;2.35;;;;;;;;;;5041917;28;20129;-47
2022/08/18 10:10:24;;;;;;;8.35;2.47;;;;;;;;;;5043266;28;20025;-48
2022/08/18 10:13:12;;;;;;;4.78;2.25;;;;;;;;;;5047413;28;20044;-48
2022/08/18 10:16:01;;;;;;;2.58;2.33;;;;;;;;;;5038918;28;20501;-47
2022/08/18 10:18:39;;;;;;;2.88;2.20;;;;;;;;;;4983442;28;20137;-50
2022/08/18 10:21:20;;;;;;;2.70;2.20;;;;;;;;;;4981387;28;20511;-47
2022/08/18 10:23:48;;;;;;;4.18;2.28;;;;;;;;;;4978213;28;20045;-48
2022/08/18 10:26:28;;;;;;;3.10;2.50;;;;;;;;;;4985419;28;20030;-48
2022/08/18 10:29:10;;;;;;;3.92;2.10;;;;;;;;;;4980215;28;20046;-47
2022/08/18 10:31:53;;;;;;;2.70;1.90;;;;;;;;;;4983198;28;20034;-49
2022/08/18 10:34:38;;;;;;;2.30;2.15;;;;;;;;;;4982017;28;20040;-48
2022/08/18 10:37:24;;;;;;;2.42;2.22;;;;;;;;;;4984658;28;20062;-50
2022/08/18 10:39:54;;;;;;;2.10;2.00;;;;;;;;;;4969859;28;20042;-47
2022/08/18 10:42:33;;;;;;;4.47;2.28;;;;;;;;;;4965376;28;20451;-50
2022/08/18 10:45:08;;;;;;;2.13;2.03;;;;;;;;;;4981938;28;20447;-49
2022/08/18 10:47:35;;;;;;;2.28;2.08;;;;;;;;;;4980281;28;20038;-47
2022/08/18 10:50:08;;;;;;;2.78;2.10;;;;;;;;;;4984341;28;20046;-47
2022/08/18 10:52:40;;;;;;;2.75;2.28;;;;;;;;;;4984034;28;20042;-50
2022/08/18 10:55:15;;;;;;;4.32;2.42;;;;;;;;;;4999893;28;20516;-51
2022/08/18 10:58:02;;;;;;;2.25;2.05;;;;;;;;;;5043671;28;20048;-48
2022/08/18 11:00:40;;;;;;;2.30;2.10;;;;;;;;;;5041174;28;20367;-49
2022/08/18 11:03:30;;;;;;;2.42;2.10;;;;;;;;;;5033984;28;20025;-49
2022/08/18 11:06:05;;;;;;;2.42;2.05;;;;;;;;;;5044525;28;20060;-47
2022/08/18 11:08:37;;;;;;;5.35;2.30;;;;;;;;;;5043679;28;20456;-49
2022/08/18 11:11:08;;;;;;;2.17;2.00;;;;;;;;;;5046307;28;20029;-51
2022/08/18 11:14:11;;;;;;;2.33;2.13;;;;;;;;;;5045958;28;20025;-50
2022/08/18 11:16:55;;;;;;;2.13;2.03;;;;;;;;;;5043840;28;20032;-51
2022/08/18 11:19:21;;;;;;;6.38;2.00;;;;;;;;;;5043060;28;20034;-47
2022/08/18 11:21:50;;;;;;;2.33;2.13;;;;;;;;;;5042926;28;20037;-48
2022/08/18 11:24:24;;;;;;;5.65;2.30;;;;;;;;;;5045813;28;20037;-49
2022/08/18 11:27:02;;;;;;;2.40;2.20;;;;;;;;;;5044006;28;20553;-49
2022/08/18 11:29:37;;;;;;;2.53;2.33;;;;;;;;;;5044445;28;20079;-51
2022/08/18 11:32:18;;;;;;;2.30;2.10;;;;;;;;;;5044283;28;20390;-49
2022/08/18 11:35:09;;;;;;;2.67;2.20;;;;;;;;;;5043098;28;20037;-50
2022/08/18 11:37:42;;;;;;;2.38;2.28;;;;;;;;;;5043667;28;20370;-47
2022/08/18 11:40:25;;;;;;;3.20;1.90;;;;;;;;;;5043291;28;20029;-52
2022/08/18 11:42:57;;;;;;;4.70;2.60;;;;;;;;;;5040082;28;20109;-50
2022/08/18 11:45:31;;;;;;;6.38;2.33;;;;;;;;;;5044277;28;20029;-47
2022/08/18 11:48:18;;;;;;;2.80;2.13;;;;;;;;;;5044710;28;20040;-49
2022/08/18 11:50:47;;;;;;;6.10;2.40;;;;;;;;;;5041551;28;20028;-51
2022/08/18 11:53:35;;;;;;;2.20;2.00;;;;;;;;;;5044820;28;20051;-49
2022/08/18 11:56:13;;;;;;;2.40;2.13;;;;;;;;;;5036584;28;20520;-49
2022/08/18 11:58:42;;;;;;;2.90;2.30;;;;;;;;;;5043258;28;20397;-50
2022/08/18 12:01:08;;;;;;;3.92;2.50;;;;;;;;;;5039656;28;20029;-50
2022/08/18 12:03:52;;;;;;;2.60;2.40;;;;;;;;;;5037773;28;20406;-49
2022/08/18 12:06:29;;;;;;;3.05;2.40;;;;;;;;;;5031274;28;20025;-49
2022/08/18 12:09:03;;;;;;;3.22;2.38;;;;;;;;;;5033676;28;20033;-51
2022/08/18 12:11:32;;;;;;;2.95;2.65;;;;;;;;;;5032204;28;20033;-47
2022/08/18 12:14:20;;;;;;;6.05;2.92;;;;;;;;;;5040798;28;20024;-50
2022/08/18 12:16:46;;;;;;;2.85;2.40;;;;;;;;;;5032107;28;20024;-51
2022/08/18 12:19:13;;;;;;;3.92;2.40;;;;;;;;;;5031227;28;20040;-47
2022/08/18 12:21:42;;;;;;;4.88;2.25;;;;;;;;;;5035467;28;20111;-51
2022/08/18 12:24:18;;;;;;;3.13;2.30;;;;;;;;;;5033566;28;20029;-53
2022/08/18 12:26:43;;;;;;;2.50;2.30;;;;;;;;;;5043034;28;20030;-49
2022/08/18 12:29:09;;;;;;;7.18;2.50;;;;;;;;;;5042338;28;20041;-51
2022/08/18 12:31:35;;;;;;;2.33;2.20;;;;;;;;;;5045200;28;20103;-50
2022/08/18 12:34:00;;;;;;;2.60;2.40;;;;;;;;;;5041168;28;20490;-52
2022/08/18 12:36:28;;;;;;;2.55;2.35;;;;;;;;;;5042815;28;20036;-50
2022/08/18 12:38:54;;;;;;;4.70;2.60;;;;;;;;;;5046687;28;20110;-49
2022/08/18 12:41:19;;;;;;;2.50;2.40;;;;;;;;;;5043099;28;20470;-48
2022/08/18 12:43:46;;;;;;;2.88;2.58;;;;;;;;;;5044156;28;20083;-51
2022/08/18 12:46:12;;;;;;;6.32;2.60;;;;;;;;;;5044741;28;20521;-48
2022/08/18 12:48:38;;;;;;;7.07;2.50;;;;;;;;;;5045649;28;20028;-52
2022/08/18 12:51:05;;;;;;;3.95;2.55;;;;;;;;;;5047148;28;20055;-53
2022/08/18 12:53:31;;;;;;;3.15;2.33;;;;;;;;;;5039714;28;20057;-55
2022/08/18 12:55:57;;;;;;;3.80;2.90;;;;;;;;;;5024505;28;20498;-48
2022/08/18 12:58:22;;;;;;;2.55;2.40;;;;;;;;;;5041066;28;20083;-53
2022/08/18 13:00:48;;;;;;;3.08;2.30;;;;;;;;;;5045298;28;20033;-52
2022/08/18 13:03:14;;;;;;;2.92;2.70;;;;;;;;;;5045004;28;20037;-52
2022/08/18 13:05:39;;;;;;;5.15;2.45;;;;;;;;;;5041817;28;20466;-52
2022/08/18 13:08:12;;;;;;;3.75;2.40;;;;;;;;;;5036868;28;20039;-48
2022/08/18 13:10:38;;;;;;;2.20;2.10;;;;;;;;;;5043333;28;20039;-47
2022/08/18 13:13:04;;;;;;;2.50;2.30;;;;;;;;;;5044912;28;20536;-49
2022/08/18 13:15:31;;;;;;;2.35;2.25;;;;;;;;;;5043500;28;20489;-47
2022/08/18 13:17:57;;;;;;;3.05;2.45;;;;;;;;;;5047209;28;20068;-49
2022/08/18 13:20:23;;;;;;;3.42;2.38;;;;;;;;;;5045765;28;20033;-50
2022/08/18 13:22:49;;;;;;;2.30;2.20;;;;;;;;;;5041715;28;20024;-52
2022/08/18 13:25:16;;;;;;;3.92;2.42;;;;;;;;;;5045485;28;20031;-48
2022/08/18 13:27:43;;;;;;;3.50;2.30;;;;;;;;;;5043204;28;20141;-52
2022/08/18 13:30:13;;;;;;;2.70;2.50;;;;;;;;;;5037650;28;20104;-54
2022/08/18 13:32:39;;;;;;;2.50;2.30;;;;;;;;;;5041377;28;20029;-54
2022/08/18 13:35:06;;;;;;;2.60;2.40;;;;;;;;;;5040306;28;20083;-51
2022/08/18 13:37:33;;;;;;;4.25;2.10;;;;;;;;;;5043480;28;20083;-49
2022/08/18 13:39:59;;;;;;;2.33;2.13;;;;;;;;;;5040987;28;20057;-50
2022/08/18 13:42:27;;;;;;;2.72;2.22;;;;;;;;;;5040827;28;20037;-50
2022/08/18 13:44:57;;;;;;;4.07;2.35;;;;;;;;;;5043805;28;20028;-47
2022/08/18 13:47:22;;;;;;;3.60;2.20;;;;;;;;;;5040811;28;20547;-51
2022/08/18 13:49:48;;;;;;;4.95;2.83;;;;;;;;;;5045089;28;20033;-49
2022/08/18 13:52:14;;;;;;;3.35;2.15;;;;;;;;;;5046183;28;20032;-48
2022/08/18 13:54:41;;;;;;;3.83;2.60;;;;;;;;;;5041048;28;20044;-51
2022/08/18 13:57:07;;;;;;;3.95;2.38;;;;;;;;;;5041372;28;20029;-50
2022/08/18 13:59:32;;;;;;;3.33;2.35;;;;;;;;;;5038175;28;20075;-49
2022/08/18 14:02:05;;;;;;;2.13;2.03;;;;;;;;;;5040412;28;20067;-53
2022/08/18 14:04:30;;;;;;;6.30;2.10;;;;;;;;;;5038160;28;20496;-47
2022/08/18 14:06:56;;;;;;;2.67;2.20;;;;;;;;;;5041214;28;20037;-54
2022/08/18 14:09:22;;;;;;;2.05;1.95;;;;;;;;;;5047679;28;20719;-47
2022/08/18 14:11:48;;;;;;;3.45;2.33;;;;;;;;;;5045468;28;20021;-50
2022/08/18 14:14:14;;;;;;;2.35;2.25;;;;;;;;;;5043037;28;20075;-54
2022/08/18 14:16:40;;;;;;;2.78;2.40;;;;;;;;;;5042951;28;20401;-50
2022/08/18 14:27:30;;;;;;;3.72;2.40;;;;;;;;;;5046166;28;20114;-47
2022/08/18 14:29:57;;;;;;;2.60;2.40;;;;;;;;;;5045847;28;20028;-53
2022/08/18 14:32:25;;;;;;;2.50;2.30;;;;;;;;;;5043577;28;20054;-57
2022/08/18 14:34:52;;;;;;;3.05;2.58;;;;;;;;;;5043759;28;20047;-53
2022/08/18 14:37:19;;;;;;;3.65;2.80;;;;;;;;;;5041762;28;20032;-51
2022/08/18 14:39:45;;;;;;;2.50;2.30;;;;;;;;;;5046934;28;20030;-51
2022/08/18 14:42:13;;;;;;;3.05;2.40;;;;;;;;;;5040990;28;20044;-48
2022/08/18 14:44:39;;;;;;;8.30;2.90;;;;;;;;;;5047327;28;20706;-52
2022/08/18 14:47:05;;;;;;;3.13;2.92;;;;;;;;;;5047010;28;20104;-55
2022/08/18 14:49:30;;;;;;;5.05;2.47;;;;;;;;;;5047749;28;20032;-51
2022/08/18 14:52:00;;;;;;;2.60;2.40;;;;;;;;;;5043894;28;20056;-53
2022/08/18 14:54:26;;;;;;;6.47;2.55;;;;;;;;;;5047825;28;20029;-51
2022/08/18 14:56:52;;;;;;;4.95;2.83;;;;;;;;;;5044425;28;20021;-51
2022/08/18 14:59:18;;;;;;;2.90;2.70;;;;;;;;;;5046498;28;20040;-50
2022/08/18 15:01:44;;;;;;;3.40;2.40;;;;;;;;;;5046222;28;20041;-53
2022/08/18 15:04:14;;;;;;;2.60;2.40;;;;;;;;;;5048067;28;20039;-54
2022/08/18 15:06:39;;;;;;;3.17;2.30;;;;;;;;;;5042962;28;20505;-49
2022/08/18 15:09:05;;;;;;;2.83;2.63;;;;;;;;;;5045701;28;20021;-50
2022/08/18 15:11:32;;;;;;;2.65;2.45;;;;;;;;;;5047267;28;20037;-53
2022/08/18 15:13:59;;;;;;;2.20;2.10;;;;;;;;;;5042631;28;20025;-51
2022/08/18 15:16:25;;;;;;;3.00;2.42;;;;;;;;;;5042648;28;20025;-50
2022/08/18 15:18:51;;;;;;;2.60;2.40;;;;;;;;;;5049326;28;20040;-48
2022/08/18 15:27:01;;;;;;;2.40;2.20;;;;;;;;;;4967450;28;20117;-47
2022/08/18 15:29:27;;;;;;;2.90;2.70;;;;;;;;;;4967260;28;20577;-49
2022/08/18 15:31:53;;;;;;;2.33;2.22;;;;;;;;;;4966959;28;20030;-48
2022/08/18 15:34:20;;;;;;;3.05;2.40;;;;;;;;;;4967545;28;20047;-52
2022/08/18 15:36:46;;;;;;;4.75;2.45;;;;;;;;;;4966763;28;20480;-48
2022/08/18 15:39:12;;;;;;;3.35;2.28;;;;;;;;;;4966202;28;20067;-51
2022/08/18 15:41:48;;;;;;;2.47;2.20;;;;;;;;;;4948181;28;20415;-49
2022/08/18 15:44:16;;;;;;;4.95;2.50;;;;;;;;;;4965336;28;20030;-49